Time;durP1;ratioP1;P1;durP2;ratioP2;P2;SDS_P1;SDS_P2;PMS_P1;PMS_P2;Temp;Humidity;BMP_temperature;BMP_pressure;BME280_temperature;BME280_humidity;BME280_pressure;Samples;Min_cycle;Max_cycle;Signal;HPM_P1;HPM_P2
2021/10/09 00:08:55;;;;;;;11.25;5.53;;;10.60;99.90;;;;;;20792325;28;20084;-43
2021/10/09 00:18:56;;;;;;;13.65;5.50;;;10.50;99.90;;;;;;20788388;28;20030;-43
2021/10/09 00:28:58;;;;;;;14.95;6.55;;;10.40;99.90;;;;;;20788738;28;20087;-43
2021/10/09 00:38:59;;;;;;;10.88;5.88;;;10.30;99.90;;;;;;20783039;28;20067;-44
2021/10/09 00:49:00;;;;;;;18.70;6.25;;;10.30;99.90;;;;;;20765887;28;20509;-43
2021/10/09 00:59:03;;;;;;;13.35;6.07;;;10.30;99.90;;;;;;20762629;28;20032;-43
2021/10/09 01:09:05;;;;;;;12.30;5.90;;;10.30;99.90;;;;;;20779806;28;20459;-43
2021/10/09 01:19:08;;;;;;;12.57;5.55;;;10.10;99.90;;;;;;20818021;28;20041;-43
2021/10/09 01:29:11;;;;;;;11.15;5.38;;;10.00;99.90;;;;;;20800094;28;20124;-43
2021/10/09 01:39:15;;;;;;;14.30;5.82;;;10.00;99.90;;;;;;20811029;28;20042;-43
2021/10/09 01:49:16;;;;;;;13.23;5.70;;;9.90;99.90;;;;;;20792350;28;20076;-43
2021/10/09 01:59:17;;;;;;;15.73;7.78;;;9.90;99.90;;;;;;20777605;28;20038;-43
2021/10/09 02:09:18;;;;;;;13.35;5.15;;;9.90;99.90;;;;;;20776903;28;20065;-43
2021/10/09 02:29:44;;;;;;;13.45;5.35;;;9.80;99.90;;;;;;20755387;28;20045;-43
2021/10/09 02:39:45;;;;;;;14.38;6.40;;;9.70;99.90;;;;;;20801343;28;20056;-43
2021/10/09 02:49:47;;;;;;;14.73;6.43;;;9.70;99.90;;;;;;20814986;28;20446;-43
2021/10/09 02:59:48;;;;;;;20.98;7.38;;;9.60;99.90;;;;;;20786429;28;20371;-43
2021/10/09 03:09:49;;;;;;;15.90;7.00;;;9.60;99.90;;;;;;20771055;28;20045;-44
2021/10/09 03:19:50;;;;;;;12.73;5.60;;;9.70;99.90;;;;;;20772518;28;20042;-43
2021/10/09 03:29:51;;;;;;;14.75;5.88;;;9.80;99.90;;;;;;20776266;28;20056;-43
2021/10/09 03:39:54;;;;;;;13.35;6.82;;;9.70;99.90;;;;;;20779927;28;20045;-43
2021/10/09 03:50:07;;;;;;;13.35;5.95;;;9.80;99.90;;;;;;20782843;28;20065;-43
2021/10/09 04:00:10;;;;;;;18.48;7.63;;;9.80;99.90;;;;;;20798330;28;20045;-43
2021/10/09 04:10:16;;;;;;;14.25;4.85;;;9.70;99.90;;;;;;20793337;28;20404;-43
2021/10/09 04:20:17;;;;;;;15.60;6.88;;;9.60;99.90;;;;;;20770425;28;20029;-43
2021/10/09 04:30:18;;;;;;;16.88;6.75;;;9.60;99.90;;;;;;20773097;28;20045;-43
2021/10/09 04:40:20;;;;;;;18.33;7.47;;;9.60;99.90;;;;;;20756554;28;20034;-43
2021/10/09 04:50:21;;;;;;;18.92;6.55;;;9.60;99.90;;;;;;20786284;28;20053;-43
2021/10/09 05:00:23;;;;;;;14.60;6.78;;;9.60;99.90;;;;;;20813213;28;20033;-43
2021/10/09 05:10:26;;;;;;;15.88;7.30;;;9.40;99.90;;;;;;20806353;28;20041;-43
2021/10/09 05:20:27;;;;;;;16.95;6.38;;;9.30;99.90;;;;;;20798678;28;20045;-43
2021/10/09 05:30:34;;;;;;;16.48;6.68;;;9.30;99.90;;;;;;20788667;28;20149;-43
2021/10/09 05:40:35;;;;;;;13.63;5.50;;;9.20;99.90;;;;;;20771876;28;20483;-43
2021/10/09 05:50:48;;;;;;;18.17;6.10;;;9.10;99.90;;;;;;20793409;28;20048;-43
2021/10/09 07:02:49;;;;;;;21.50;7.85;;;9.10;99.90;;;;;;20777645;28;20045;-43
2021/10/09 07:12:50;;;;;;;18.10;7.30;;;9.30;99.90;;;;;;20811650;28;20073;-43
2021/10/09 07:22:51;;;;;;;20.83;8.02;;;9.40;99.90;;;;;;20792552;28;20045;-43
2021/10/09 07:32:52;;;;;;;18.98;7.75;;;9.50;99.90;;;;;;20812908;28;20132;-43
2021/10/09 07:42:53;;;;;;;21.48;7.45;;;9.70;99.90;;;;;;20809452;28;20053;-43
2021/10/09 07:52:54;;;;;;;20.95;8.07;;;9.80;99.90;;;;;;20783753;28;20054;-43
2021/10/09 08:02:58;;;;;;;29.75;10.30;;;10.00;99.90;;;;;;20787486;28;20045;-43
2021/10/09 08:12:59;;;;;;;21.80;8.02;;;10.20;99.90;;;;;;20742354;28;20056;-43
2021/10/09 08:23:04;;;;;;;28.23;9.98;;;10.50;99.90;;;;;;20795550;28;20033;-43
2021/10/09 08:43:26;;;;;;;20.95;9.90;;;11.00;99.90;;;;;;20831518;28;20045;-43
2021/10/09 08:53:38;;;;;;;32.80;9.40;;;11.20;99.90;;;;;;20809996;28;20052;-43
2021/10/09 09:03:58;;;;;;;23.08;8.88;;;11.50;99.90;;;;;;20805339;28;20041;-43
2021/10/09 09:45:00;;;;;;;18.73;8.98;;;11.80;99.90;;;;;;20800868;28;20030;-43
2021/10/09 09:55:06;;;;;;;27.23;10.90;;;11.90;99.90;;;;;;20828434;28;20067;-43
2021/10/09 10:05:07;;;;;;;31.45;8.93;;;12.20;99.90;;;;;;20814848;28;20038;-43
2021/10/09 10:15:10;;;;;;;21.70;10.50;;;12.40;99.90;;;;;;20785625;28;20041;-43
2021/10/09 10:25:25;;;;;;;26.73;8.65;;;12.50;99.90;;;;;;20777116;28;20084;-43
2021/10/09 10:35:29;;;;;;;20.88;9.50;;;12.70;99.90;;;;;;20787780;28;20061;-43
2021/10/09 10:45:36;;;;;;;20.35;8.45;;;12.90;99.90;;;;;;20811123;28;20052;-44
2021/10/09 10:56:11;;;;;;;18.17;7.93;;;13.20;99.90;;;;;;20806989;28;20123;-43
2021/10/09 11:06:13;;;;;;;18.58;8.00;;;13.40;99.90;;;;;;20785604;28;20414;-43
2021/10/09 11:16:15;;;;;;;18.35;7.35;;;13.90;99.90;;;;;;20809655;28;20458;-45
2021/10/09 11:26:17;;;;;;;19.50;7.88;;;14.70;99.90;;;;;;20792674;28;20048;-45
2021/10/09 11:36:18;;;;;;;15.85;6.38;;;15.80;99.90;;;;;;20794508;28;20049;-45
2021/10/09 11:56:52;;;;;;;18.42;7.03;;;17.00;99.90;;;;;;20773746;28;20061;-46
2021/10/09 12:06:58;;;;;;;13.30;7.00;;;17.30;99.90;;;;;;20809149;28;20124;-45
2021/10/09 12:16:59;;;;;;;15.10;6.75;;;17.00;99.90;;;;;;20804656;28;20545;-45
2021/10/09 12:27:12;;;;;;;14.60;6.80;;;17.00;99.90;;;;;;20801928;28;20743;-45
2021/10/09 12:37:27;;;;;;;15.60;6.30;;;17.20;99.90;;;;;;20782910;28;20411;-45
2021/10/09 12:47:28;;;;;;;15.93;6.95;;;18.00;99.90;;;;;;20771394;28;20049;-45
2021/10/09 12:57:30;;;;;;;12.45;6.20;;;18.60;99.90;;;;;;20771506;28;20069;-45
2021/10/09 13:07:31;;;;;;;12.48;6.03;;;18.50;99.90;;;;;;20778514;28;20562;-45
2021/10/09 13:17:32;;;;;;;12.68;5.13;;;18.50;99.90;;;;;;20808202;28;20542;-45
2021/10/09 13:27:33;;;;;;;12.20;5.32;;;18.90;99.90;;;;;;20775879;28;20066;-46
2021/10/09 13:37:39;;;;;;;10.90;5.43;;;19.60;99.90;;;;;;20816023;28;20072;-46
2021/10/09 13:47:41;;;;;;;11.90;5.72;;;19.90;99.90;;;;;;20801024;28;20084;-46
2021/10/09 13:57:42;;;;;;;11.98;5.65;;;20.20;99.90;;;;;;20788478;28;20056;-46
2021/10/09 14:07:43;;;;;;;14.27;5.95;;;20.50;99.90;;;;;;20783767;28;20133;-46
2021/10/09 14:17:44;;;;;;;12.10;5.82;;;20.70;99.90;;;;;;20801017;28;20553;-46
2021/10/09 14:27:45;;;;;;;10.88;5.10;;;20.30;99.90;;;;;;20806631;28;20048;-46
2021/10/09 14:37:47;;;;;;;19.00;5.75;;;19.60;99.90;;;;;;20825476;28;20475;-45
2021/10/09 15:18:39;;;;;;;15.63;6.37;;;17.40;99.90;;;;;;20769129;28;20049;-45
2021/10/09 15:28:41;;;;;;;13.52;5.35;;;17.10;99.90;;;;;;20795846;28;20410;-45
2021/10/09 15:38:43;;;;;;;19.10;6.28;;;16.80;99.90;;;;;;20782611;28;20520;-45
2021/10/09 15:48:44;;;;;;;12.57;4.97;;;16.40;99.90;;;;;;20822399;28;20049;-45
2021/10/09 15:58:46;;;;;;;12.13;5.13;;;16.10;99.90;;;;;;20791831;28;20132;-45
2021/10/09 16:08:48;;;;;;;14.10;5.75;;;15.80;99.90;;;;;;20797221;28;20069;-45
2021/10/09 16:18:49;;;;;;;9.90;5.47;;;15.70;99.90;;;;;;20780614;28;20104;-45
2021/10/09 16:28:50;;;;;;;12.68;6.68;;;15.50;99.90;;;;;;20785700;28;20042;-45
2021/10/09 16:38:51;;;;;;;13.00;5.47;;;15.30;99.90;;;;;;20742592;28;20422;-45
2021/10/09 16:48:53;;;;;;;12.57;5.97;;;14.80;99.90;;;;;;20823918;28;20037;-45
2021/10/09 16:58:54;;;;;;;22.10;9.68;;;14.40;99.90;;;;;;20827692;28;20053;-45
2021/10/09 17:08:56;;;;;;;22.73;10.27;;;14.00;99.90;;;;;;20813020;28;20049;-45
2021/10/09 17:19:06;;;;;;;29.38;13.68;;;13.70;99.90;;;;;;20791926;28;20053;-45
2021/10/09 17:29:07;;;;;;;21.83;10.00;;;13.50;99.90;;;;;;20784805;28;20048;-45
2021/10/09 17:39:08;;;;;;;19.42;10.15;;;13.30;99.90;;;;;;20778129;28;20050;-45
2021/10/09 17:49:10;;;;;;;19.95;9.57;;;13.10;99.90;;;;;;20791704;28;20134;-45
2021/10/09 17:59:11;;;;;;;18.33;9.32;;;12.70;99.90;;;;;;20833882;28;20415;-46
2021/10/09 18:09:12;;;;;;;34.13;13.73;;;12.60;99.90;;;;;;20805078;28;20045;-45
2021/10/09 18:19:17;;;;;;;31.70;11.75;;;12.60;99.90;;;;;;20807294;28;20564;-45
2021/10/09 18:29:18;;;;;;;34.50;13.23;;;12.50;99.90;;;;;;20812196;28;20052;-45
2021/10/09 18:39:19;;;;;;;33.88;11.50;;;12.30;99.90;;;;;;20763354;28;20053;-45
2021/10/09 18:49:22;;;;;;;20.73;9.82;;;12.20;99.90;;;;;;20794809;28;20042;-45
2021/10/09 18:59:23;;;;;;;16.90;7.97;;;12.00;99.90;;;;;;20766331;28;20049;-45
2021/10/09 19:09:25;;;;;;;17.40;7.82;;;11.80;99.90;;;;;;20814221;28;20048;-45
2021/10/09 19:19:26;;;;;;;19.70;8.02;;;11.80;99.90;;;;;;20800656;28;20381;-45
2021/10/09 19:29:27;;;;;;;19.45;8.00;;;11.80;99.90;;;;;;20816354;28;20507;-45
2021/10/09 19:39:29;;;;;;;19.65;8.93;;;11.50;99.90;;;;;;20790696;28;20055;-45
2021/10/09 19:49:30;;;;;;;20.50;8.30;;;11.30;99.90;;;;;;20786517;28;20045;-45
2021/10/09 19:59:33;;;;;;;17.00;7.25;;;11.40;99.90;;;;;;20777141;28;20046;-45
2021/10/09 20:09:43;;;;;;;20.40;8.48;;;11.40;99.90;;;;;;20769557;28;20052;-45
2021/10/09 20:19:45;;;;;;;20.92;9.15;;;11.20;99.90;;;;;;20789712;28;20056;-45
2021/10/09 20:29:46;;;;;;;22.10;8.68;;;11.00;99.90;;;;;;20787293;28;20033;-45
2021/10/09 20:39:48;;;;;;;17.58;8.77;;;11.00;99.90;;;;;;20818795;28;20038;-44
2021/10/09 20:49:49;;;;;;;20.52;8.57;;;10.80;99.90;;;;;;20796124;28;20498;-44
2021/10/09 20:59:50;;;;;;;23.05;8.10;;;10.70;99.90;;;;;;20758898;28;20121;-45
2021/10/09 21:09:53;;;;;;;16.45;8.23;;;10.50;99.90;;;;;;20763096;28;20068;-44
2021/10/09 21:30:14;;;;;;;21.45;9.25;;;10.40;99.90;;;;;;20799705;28;20060;-45
2021/10/09 21:40:15;;;;;;;17.00;7.97;;;10.50;99.90;;;;;;20809561;28;20032;-45
2021/10/09 21:50:16;;;;;;;17.98;8.00;;;10.20;99.90;;;;;;20801547;28;20066;-45
2021/10/09 22:01:15;;;;;;;19.17;7.88;;;10.10;99.90;;;;;;20819538;28;20031;-45
2021/10/09 22:42:24;;;;;;;22.58;8.25;;;10.00;99.90;;;;;;20782389;28;20038;-45
2021/10/09 22:52:26;;;;;;;23.70;8.40;;;10.00;99.90;;;;;;20804312;28;20047;-45
2021/10/09 23:02:29;;;;;;;13.77;7.70;;;9.80;99.90;;;;;;20793905;28;20044;-45
2021/10/09 23:12:30;;;;;;;19.80;7.78;;;9.60;99.90;;;;;;20794118;28;20040;-45
2021/10/09 23:22:32;;;;;;;16.92;9.18;;;9.50;99.90;;;;;;20763929;28;20036;-45
2021/10/09 23:32:33;;;;;;;15.93;6.63;;;9.30;99.90;;;;;;20774379;28;20081;-44
2021/10/09 23:42:34;;;;;;;16.30;6.97;;;9.20;99.90;;;;;;20772075;28;20038;-44
2021/10/09 23:52:35;;;;;;;17.75;7.90;;;9.10;99.90;;;;;;20808791;28;20065;-45
